Time;durP1;ratioP1;P1;durP2;ratioP2;P2;SDS_P1;SDS_P2;PMS_P1;PMS_P2;Temp;Humidity;BMP_temperature;BMP_pressure;BME280_temperature;BME280_humidity;BME280_pressure;Samples;Min_cycle;Max_cycle;Signal;HPM_P1;HPM_P2
2021/03/28 00:01:45;;;;;;;;;;;17.50;59.80;;;;;;5023470;28;19936;-73
2021/03/28 00:04:12;;;;;;;;;;;17.50;59.70;;;;;;5031336;28;20369;-75
2021/03/28 00:06:53;;;;;;;;;;;17.40;59.70;;;;;;5030611;28;19975;-74
2021/03/28 00:09:24;;;;;;;;;;;17.50;59.80;;;;;;5031701;28;20418;-74
2021/03/28 00:11:50;;;;;;;;;;;17.40;59.80;;;;;;5031030;28;19923;-74
2021/03/28 00:14:16;;;;;;;;;;;17.40;59.80;;;;;;5037417;28;20011;-74
2021/03/28 00:16:47;;;;;;;;;;;17.50;59.70;;;;;;5022897;28;20376;-75
2021/03/28 00:19:23;;;;;;;;;;;17.50;59.70;;;;;;5051576;28;19917;-74
2021/03/28 00:21:54;;;;;;;;;;;17.50;59.80;;;;;;5034184;28;19921;-74
2021/03/28 00:24:26;;;;;;;;;;;17.40;59.80;;;;;;5027347;28;20369;-74
2021/03/28 00:27:00;;;;;;;;;;;17.50;59.80;;;;;;5030154;28;19917;-75
2021/03/28 00:29:27;;;;;;;;;;;17.50;59.80;;;;;;5018492;28;19933;-74
2021/03/28 00:32:01;;;;;;;;;;;17.50;59.80;;;;;;5026570;28;19917;-74
2021/03/28 00:34:27;;;;;;;;;;;17.50;59.80;;;;;;5025444;28;20019;-74
2021/03/28 00:37:00;;;;;;;;;;;17.40;59.70;;;;;;5031783;28;19972;-74
2021/03/28 00:39:38;;;;;;;;;;;17.40;59.80;;;;;;5029665;28;19913;-73
2021/03/28 00:42:13;;;;;;;;;;;17.50;59.80;;;;;;5047639;28;20382;-74
2021/03/28 00:44:48;;;;;;;;;;;17.50;59.80;;;;;;5062421;28;19917;-74
2021/03/28 00:47:17;;;;;;;;;;;17.40;59.80;;;;;;5032807;28;19913;-74
2021/03/28 00:49:44;;;;;;;;;;;17.50;59.70;;;;;;5050047;28;19966;-74
2021/03/28 00:52:13;;;;;;;;;;;17.40;59.80;;;;;;5050900;28;19920;-74
2021/03/28 00:54:38;;;;;;;;;;;17.40;59.80;;;;;;5054702;28;20337;-74
2021/03/28 00:57:05;;;;;;;;;;;17.40;59.80;;;;;;5018122;28;19913;-74
2021/03/28 00:59:57;;;;;;;;;;;17.50;59.80;;;;;;5017019;28;20357;-74
2021/03/28 01:02:27;;;;;;;;;;;17.40;59.80;;;;;;5001086;28;19996;-76
2021/03/28 01:04:55;;;;;;;;;;;17.40;59.80;;;;;;5049792;28;19921;-75
2021/03/28 01:07:21;;;;;;;;;;;17.50;59.80;;;;;;5035791;28;19960;-74
2021/03/28 01:10:05;;;;;;;;;;;17.50;59.80;;;;;;5051703;28;19934;-75
2021/03/28 01:12:49;;;;;;;;;;;17.40;59.70;;;;;;5041676;28;19928;-74
2021/03/28 01:15:37;;;;;;;;;;;17.40;59.80;;;;;;5050714;28;20359;-74
2021/03/28 01:18:08;;;;;;;;;;;17.50;59.80;;;;;;5032678;28;20318;-75
2021/03/28 01:21:03;;;;;;;;;;;17.40;59.80;;;;;;5042554;28;20027;-74
2021/03/28 01:23:36;;;;;;;;;;;17.50;59.80;;;;;;5015563;28;19913;-74
2021/03/28 01:26:09;;;;;;;;;;;17.40;59.80;;;;;;5025031;28;19917;-74
2021/03/28 01:28:43;;;;;;;;;;;17.40;59.80;;;;;;5034643;28;19921;-74
2021/03/28 01:31:15;;;;;;;;;;;17.40;59.80;;;;;;5049059;28;20113;-74
2021/03/28 01:33:46;;;;;;;;;;;17.50;59.80;;;;;;5050770;28;19917;-74
2021/03/28 01:36:19;;;;;;;;;;;17.40;59.80;;;;;;5039351;28;19913;-74
2021/03/28 01:38:50;;;;;;;;;;;17.40;59.80;;;;;;5043203;28;19916;-74
2021/03/28 01:41:18;;;;;;;;;;;17.40;59.80;;;;;;5054992;28;20020;-74
2021/03/28 01:43:53;;;;;;;;;;;17.40;59.80;;;;;;5043373;28;19914;-74
2021/03/28 01:46:18;;;;;;;;;;;17.40;59.80;;;;;;5047199;28;20371;-74
2021/03/28 01:48:44;;;;;;;;;;;17.40;59.80;;;;;;5039360;28;19919;-74
2021/03/28 01:51:21;;;;;;;;;;;17.40;59.80;;;;;;5065194;28;20378;-74
2021/03/28 01:54:05;;;;;;;;;;;17.40;59.80;;;;;;5033791;28;19921;-75
2021/03/28 01:56:30;;;;;;;;;;;17.40;59.80;;;;;;5045047;28;20004;-74
2021/03/28 01:59:02;;;;;;;;;;;17.40;59.80;;;;;;5062055;28;21675;-74
2021/03/28 02:01:41;;;;;;;;;;;17.40;59.80;;;;;;5051929;28;19996;-74
2021/03/28 02:04:22;;;;;;;;;;;17.40;59.80;;;;;;5030696;28;19963;-74
2021/03/28 02:07:01;;;;;;;;;;;17.40;59.80;;;;;;5051763;28;19917;-75
2021/03/28 02:09:33;;;;;;;;;;;17.40;59.80;;;;;;5024590;28;19909;-74
2021/03/28 02:12:02;;;;;;;;;;;17.40;59.80;;;;;;5031284;28;19917;-75
2021/03/28 02:14:39;;;;;;;;;;;17.40;59.80;;;;;;5051252;28;20393;-73
2021/03/28 02:17:14;;;;;;;;;;;17.40;59.80;;;;;;5064765;28;19971;-74
2021/03/28 02:19:50;;;;;;;;;;;17.40;59.80;;;;;;5048919;28;19963;-75
2021/03/28 02:22:46;;;;;;;;;;;17.40;59.80;;;;;;5036366;28;19917;-76
2021/03/28 02:25:19;;;;;;;;;;;17.40;59.80;;;;;;5041739;28;19917;-74
2021/03/28 02:27:44;;;;;;;;;;;17.40;59.80;;;;;;5037109;28;19912;-74
2021/03/28 02:30:10;;;;;;;;;;;17.40;59.80;;;;;;5039392;28;20010;-74
2021/03/28 02:32:46;;;;;;;;;;;17.40;59.80;;;;;;5051253;28;20278;-74
2021/03/28 02:35:32;;;;;;;;;;;17.40;59.80;;;;;;5035496;28;19924;-75
2021/03/28 02:38:16;;;;;;;;;;;17.40;59.90;;;;;;5053078;28;20382;-74
2021/03/28 02:40:44;;;;;;;;;;;17.40;59.80;;;;;;5063396;28;19921;-74
2021/03/28 02:43:10;;;;;;;;;;;17.40;59.80;;;;;;5030705;28;19925;-74
2021/03/28 02:45:37;;;;;;;;;;;17.40;59.80;;;;;;5035724;28;19909;-74
2021/03/28 02:48:15;;;;;;;;;;;17.40;59.80;;;;;;5032039;28;19920;-75
2021/03/28 02:50:59;;;;;;;;;;;17.40;59.80;;;;;;5025136;28;19952;-75
2021/03/28 02:53:40;;;;;;;;;;;17.40;59.80;;;;;;5021261;28;19913;-74
2021/03/28 02:56:24;;;;;;;;;;;17.40;59.90;;;;;;5032141;28;19913;-75
2021/03/28 02:58:49;;;;;;;;;;;17.40;59.90;;;;;;5026160;28;20004;-74
2021/03/28 03:01:33;;;;;;;;;;;17.40;59.90;;;;;;5030663;28;20367;-74
2021/03/28 03:04:16;;;;;;;;;;;17.40;59.90;;;;;;5049291;28;19956;-74
2021/03/28 03:06:49;;;;;;;;;;;17.40;59.90;;;;;;5026850;28;19921;-74
2021/03/28 03:09:33;;;;;;;;;;;17.40;59.90;;;;;;5017943;28;19952;-74
2021/03/28 03:12:17;;;;;;;;;;;17.40;59.90;;;;;;5029069;28;19924;-74
2021/03/28 03:14:55;;;;;;;;;;;17.40;59.90;;;;;;5024640;28;20279;-75
2021/03/28 03:17:31;;;;;;;;;;;17.40;59.90;;;;;;5027081;28;19914;-74
2021/03/28 03:20:20;;;;;;;;;;;17.40;59.90;;;;;;5014282;28;19910;-74
2021/03/28 03:23:04;;;;;;;;;;;17.40;59.90;;;;;;5022492;28;19987;-75
2021/03/28 03:25:48;;;;;;;;;;;17.40;59.90;;;;;;5023429;28;20419;-74
2021/03/28 03:28:32;;;;;;;;;;;17.40;59.90;;;;;;5022294;28;20008;-73
2021/03/28 03:31:10;;;;;;;;;;;17.40;59.90;;;;;;5047632;28;19917;-73
2021/03/28 03:33:54;;;;;;;;;;;17.40;59.90;;;;;;5023151;28;20004;-74
2021/03/28 03:36:38;;;;;;;;;;;17.40;59.90;;;;;;5028992;28;20008;-74
2021/03/28 03:39:18;;;;;;;;;;;17.40;59.90;;;;;;5028537;28;19919;-74
2021/03/28 03:41:49;;;;;;;;;;;17.40;59.90;;;;;;5035020;28;19927;-75
2021/03/28 03:44:15;;;;;;;;;;;17.30;59.90;;;;;;5049801;28;19920;-74
2021/03/28 03:46:59;;;;;;;;;;;17.40;59.90;;;;;;5044380;28;19920;-74
2021/03/28 03:49:38;;;;;;;;;;;17.40;59.90;;;;;;5043073;28;19952;-74
2021/03/28 03:52:06;;;;;;;;;;;17.40;59.90;;;;;;5034627;28;19916;-74
2021/03/28 03:54:38;;;;;;;;;;;17.40;59.90;;;;;;5045763;28;19917;-74
2021/03/28 03:57:06;;;;;;;;;;;17.40;59.90;;;;;;5031324;28;19917;-74
2021/03/28 03:59:51;;;;;;;;;;;17.40;60.00;;;;;;5040994;28;19913;-75
2021/03/28 04:02:23;;;;;;;;;;;17.30;59.90;;;;;;5034144;28;20373;-75
2021/03/28 04:05:04;;;;;;;;;;;17.30;59.90;;;;;;5049896;28;19912;-74
2021/03/28 04:07:42;;;;;;;;;;;17.30;59.90;;;;;;5051077;28;19916;-74
2021/03/28 04:10:26;;;;;;;;;;;17.40;60.00;;;;;;5026279;28;20055;-74
2021/03/28 04:12:52;;;;;;;;;;;17.30;60.00;;;;;;5041065;28;19921;-74
2021/03/28 04:15:20;;;;;;;;;;;17.30;60.00;;;;;;5051949;28;19912;-75
2021/03/28 04:17:54;;;;;;;;;;;17.40;60.00;;;;;;5063456;28;20264;-75
2021/03/28 04:20:38;;;;;;;;;;;17.30;60.00;;;;;;5032770;28;20279;-74
2021/03/28 04:23:08;;;;;;;;;;;17.30;60.00;;;;;;5046312;28;19913;-74
2021/03/28 04:25:58;;;;;;;;;;;17.30;60.00;;;;;;5049004;28;19912;-74
2021/03/28 04:28:42;;;;;;;;;;;17.40;60.00;;;;;;5032513;28;20425;-74
2021/03/28 04:31:26;;;;;;;;;;;17.30;60.00;;;;;;5041279;28;19963;-74
2021/03/28 04:34:02;;;;;;;;;;;17.30;60.00;;;;;;5060968;28;20337;-74
2021/03/28 04:36:30;;;;;;;;;;;17.30;60.00;;;;;;5049011;28;19959;-73
2021/03/28 04:38:55;;;;;;;;;;;17.30;60.00;;;;;;5052220;28;20015;-74
2021/03/28 04:41:44;;;;;;;;;;;17.30;60.10;;;;;;5067351;28;19994;-74
2021/03/28 04:44:17;;;;;;;;;;;17.30;60.10;;;;;;5060671;28;19924;-74
2021/03/28 04:46:58;;;;;;;;;;;17.30;60.10;;;;;;5045521;28;19913;-73
2021/03/28 04:49:42;;;;;;;;;;;17.30;60.10;;;;;;5027617;28;19913;-74
2021/03/28 04:52:26;;;;;;;;;;;17.30;60.10;;;;;;5046147;28;19940;-74
2021/03/28 04:54:54;;;;;;;;;;;17.30;60.10;;;;;;5040542;28;19962;-74
2021/03/28 04:57:23;;;;;;;;;;;17.30;60.10;;;;;;5048839;28;19923;-74
2021/03/28 04:59:48;;;;;;;;;;;17.30;60.10;;;;;;5048366;28;19913;-73
2021/03/28 05:02:32;;;;;;;;;;;17.30;60.10;;;;;;5064717;28;19944;-73
2021/03/28 05:05:16;;;;;;;;;;;17.30;60.10;;;;;;5055315;28;19912;-74
2021/03/28 05:07:45;;;;;;;;;;;17.30;60.10;;;;;;5050322;28;19939;-74
2021/03/28 05:10:29;;;;;;;;;;;17.30;60.10;;;;;;5032530;28;19956;-73
2021/03/28 05:13:13;;;;;;;;;;;17.30;60.10;;;;;;5048198;28;19967;-73
2021/03/28 05:15:57;;;;;;;;;;;17.30;60.10;;;;;;5044423;28;19917;-75
2021/03/28 05:18:48;;;;;;;;;;;17.30;60.10;;;;;;5051784;28;19994;-75
2021/03/28 05:21:23;;;;;;;;;;;17.30;60.10;;;;;;5052914;28;19912;-74
2021/03/28 05:23:54;;;;;;;;;;;17.30;60.10;;;;;;5045316;28;20052;-75
2021/03/28 05:26:37;;;;;;;;;;;17.30;60.10;;;;;;5052569;28;19917;-74
2021/03/28 05:29:08;;;;;;;;;;;17.30;60.10;;;;;;5034964;28;19913;-75
2021/03/28 05:31:43;;;;;;;;;;;17.30;60.10;;;;;;5036463;28;19917;-73
2021/03/28 05:34:27;;;;;;;;;;;17.30;60.10;;;;;;5046338;28;19960;-75
2021/03/28 05:37:09;;;;;;;;;;;17.30;60.10;;;;;;5046097;28;19920;-74
2021/03/28 05:39:52;;;;;;;;;;;17.30;60.00;;;;;;5052297;28;19959;-74
2021/03/28 05:42:21;;;;;;;;;;;17.30;60.00;;;;;;5063143;28;20011;-74
2021/03/28 05:45:01;;;;;;;;;;;17.30;60.00;;;;;;5033795;28;20004;-75
2021/03/28 05:47:46;;;;;;;;;;;17.30;60.00;;;;;;5042701;28;19920;-74
2021/03/28 05:50:26;;;;;;;;;;;17.40;60.00;;;;;;5025920;28;19964;-74
2021/03/28 05:52:54;;;;;;;;;;;17.30;59.90;;;;;;5029005;28;20428;-74
2021/03/28 05:55:38;;;;;;;;;;;17.40;59.90;;;;;;5024659;28;20012;-74
2021/03/28 05:58:12;;;;;;;;;;;17.30;59.90;;;;;;5038048;28;20405;-74
2021/03/28 06:00:56;;;;;;;;;;;17.40;60.00;;;;;;5034793;28;20004;-73
2021/03/28 06:03:42;;;;;;;;;;;17.30;59.90;;;;;;5028418;28;19924;-74
2021/03/28 06:06:26;;;;;;;;;;;17.40;59.90;;;;;;5026910;28;19913;-74
2021/03/28 06:09:01;;;;;;;;;;;17.40;60.00;;;;;;5045136;28;19964;-74
2021/03/28 06:11:27;;;;;;;;;;;17.30;59.90;;;;;;5024282;28;19917;-73
2021/03/28 06:14:15;;;;;;;;;;;17.40;59.90;;;;;;5029679;28;20260;-73
2021/03/28 06:16:49;;;;;;;;;;;17.30;60.00;;;;;;5031239;28;19963;-74
2021/03/28 06:19:33;;;;;;;;;;;17.40;59.90;;;;;;5026712;28;20313;-73
2021/03/28 06:22:28;;;;;;;;;;;17.40;59.90;;;;;;5022129;28;19913;-73
2021/03/28 06:24:53;;;;;;;;;;;17.40;59.90;;;;;;5048214;28;19924;-73
2021/03/28 06:27:38;;;;;;;;;;;17.40;59.90;;;;;;5031871;28;19921;-74
2021/03/28 06:30:23;;;;;;;;;;;17.40;59.80;;;;;;5019234;28;19913;-74
2021/03/28 06:33:07;;;;;;;;;;;17.40;59.80;;;;;;5053876;28;20264;-73
2021/03/28 06:35:53;;;;;;;;;;;17.40;59.80;;;;;;5023732;28;19928;-74
2021/03/28 06:38:31;;;;;;;;;;;17.40;59.80;;;;;;5024180;28;19913;-73
2021/03/28 06:41:08;;;;;;;;;;;17.40;59.80;;;;;;5024899;28;19921;-73
2021/03/28 06:43:53;;;;;;;;;;;17.40;59.70;;;;;;5034366;28;20355;-74
2021/03/28 06:46:18;;;;;;;;;;;17.40;59.70;;;;;;5032483;28;20386;-76
2021/03/28 06:49:19;;;;;;;;;;;17.40;59.70;;;;;;5053563;28;19914;-74
2021/03/28 06:51:57;;;;;;;;;;;17.40;59.80;;;;;;5030976;28;20323;-74
2021/03/28 06:54:25;;;;;;;;;;;17.40;59.70;;;;;;5024267;28;20271;-75
2021/03/28 06:57:09;;;;;;;;;;;17.40;59.80;;;;;;5020590;28;19929;-75
2021/03/28 06:59:37;;;;;;;;;;;17.50;59.70;;;;;;5028242;28;20423;-73
2021/03/28 07:02:26;;;;;;;;;;;17.40;59.70;;;;;;5030764;28;19913;-74
2021/03/28 07:05:10;;;;;;;;;;;17.50;59.60;;;;;;5026904;28;20275;-74
2021/03/28 07:08:02;;;;;;;;;;;17.50;59.60;;;;;;5028107;28;20421;-74
2021/03/28 07:10:39;;;;;;;;;;;17.50;59.60;;;;;;5024987;28;19917;-75
2021/03/28 07:13:23;;;;;;;;;;;17.50;59.60;;;;;;5026356;28;19953;-75
2021/03/28 07:16:07;;;;;;;;;;;17.50;59.50;;;;;;5029376;28;19960;-74
2021/03/28 07:18:44;;;;;;;;;;;17.50;59.50;;;;;;5017677;28;20429;-74
2021/03/28 07:21:10;;;;;;;;;;;17.50;59.50;;;;;;5030105;28;19916;-74
2021/03/28 07:23:54;;;;;;;;;;;17.50;59.50;;;;;;5023674;28;19920;-74
2021/03/28 07:26:38;;;;;;;;;;;17.50;59.50;;;;;;5017124;28;19937;-74
2021/03/28 07:29:07;;;;;;;;;;;17.50;59.40;;;;;;5045500;28;20311;-75
2021/03/28 07:31:32;;;;;;;;;;;17.50;59.40;;;;;;5024182;28;19921;-76
2021/03/28 07:34:11;;;;;;;;;;;17.50;59.50;;;;;;5017556;28;19918;-76
2021/03/28 07:36:42;;;;;;;;;;;17.50;59.50;;;;;;5024834;28;20347;-75
2021/03/28 07:39:27;;;;;;;;;;;17.50;59.50;;;;;;5047836;28;19917;-75
2021/03/28 07:41:58;;;;;;;;;;;17.50;59.50;;;;;;5043956;28;19921;-74
2021/03/28 07:44:24;;;;;;;;;;;17.50;59.50;;;;;;5058022;28;19913;-75
2021/03/28 07:46:55;;;;;;;;;;;17.50;59.50;;;;;;5060339;28;19917;-75
2021/03/28 07:49:27;;;;;;;;;;;17.50;59.40;;;;;;5049847;28;19948;-75
2021/03/28 07:52:18;;;;;;;;;;;17.50;59.40;;;;;;5056112;28;19917;-75
2021/03/28 07:55:04;;;;;;;;;;;17.60;59.40;;;;;;5034065;28;19921;-74
2021/03/28 07:57:49;;;;;;;;;;;17.60;59.30;;;;;;5012585;28;19912;-75
2021/03/28 08:00:31;;;;;;;;;;;17.60;59.20;;;;;;5019047;28;20282;-75
2021/03/28 08:03:15;;;;;;;;;;;17.60;59.20;;;;;;5044249;28;19913;-75
2021/03/28 08:06:00;;;;;;;;;;;17.60;59.10;;;;;;5054927;28;19917;-75
2021/03/28 08:08:44;;;;;;;;;;;17.60;59.20;;;;;;5055547;28;19959;-75
2021/03/28 08:11:28;;;;;;;;;;;17.60;59.20;;;;;;5063073;28;20313;-75
2021/03/28 08:13:59;;;;;;;;;;;17.60;59.20;;;;;;5060549;28;19925;-76
2021/03/28 08:16:28;;;;;;;;;;;17.50;59.20;;;;;;5045972;28;19920;-79
2021/03/28 08:19:05;;;;;;;;;;;17.60;59.20;;;;;;5033805;28;19913;-78
2021/03/28 08:21:46;;;;;;;;;;;17.60;59.20;;;;;;5042809;28;19913;-79
2021/03/28 08:24:11;;;;;;;;;;;17.60;59.20;;;;;;5041103;28;19974;-79
2021/03/28 08:26:42;;;;;;;;;;;17.60;59.10;;;;;;5048769;28;20421;-78
2021/03/28 08:29:29;;;;;;;;;;;17.70;59.10;;;;;;5042823;28;19913;-79
2021/03/28 08:32:00;;;;;;;;;;;17.70;59.00;;;;;;5043820;28;19944;-79
2021/03/28 08:34:30;;;;;;;;;;;17.70;58.90;;;;;;5036184;28;20374;-80
2021/03/28 08:37:14;;;;;;;;;;;17.70;58.80;;;;;;5029288;28;19956;-80
2021/03/28 08:39:58;;;;;;;;;;;17.70;58.80;;;;;;5048870;28;19917;-80
2021/03/28 08:42:43;;;;;;;;;;;17.70;58.80;;;;;;5058408;28;19920;-79
2021/03/28 08:45:27;;;;;;;;;;;17.80;58.80;;;;;;5027531;28;19920;-79
2021/03/28 08:48:12;;;;;;;;;;;17.70;58.80;;;;;;5049604;28;19962;-78
2021/03/28 08:50:56;;;;;;;;;;;17.80;58.80;;;;;;5052175;28;20010;-78
2021/03/28 08:53:40;;;;;;;;;;;17.80;58.70;;;;;;5035956;28;19917;-79
2021/03/28 08:56:15;;;;;;;;;;;17.80;58.60;;;;;;5056707;28;19920;-78
2021/03/28 08:58:48;;;;;;;;;;;17.80;58.60;;;;;;5050334;28;20019;-79
2021/03/28 09:01:38;;;;;;;;;;;17.80;58.60;;;;;;5049929;28;19967;-78
2021/03/28 09:04:12;;;;;;;;;;;17.80;58.60;;;;;;5044375;28;20362;-78
2021/03/28 09:06:43;;;;;;;;;;;17.80;58.50;;;;;;5048290;28;19919;-78
2021/03/28 09:09:29;;;;;;;;;;;17.80;58.40;;;;;;5044861;28;19913;-78
2021/03/28 09:12:01;;;;;;;;;;;17.80;58.40;;;;;;5015608;28;19926;-78
2021/03/28 09:14:48;;;;;;;;;;;17.80;58.40;;;;;;5058026;28;19924;-77
2021/03/28 09:17:18;;;;;;;;;;;17.80;58.30;;;;;;5032713;28;20423;-78
2021/03/28 09:19:46;;;;;;;;;;;17.80;58.40;;;;;;5032866;28;19917;-78
2021/03/28 09:22:17;;;;;;;;;;;17.80;58.40;;;;;;5048029;28;19966;-79
2021/03/28 09:24:47;;;;;;;;;;;17.80;58.40;;;;;;5042618;28;19913;-78
2021/03/28 09:27:23;;;;;;;;;;;17.80;58.30;;;;;;5030559;28;20004;-78
2021/03/28 09:29:52;;;;;;;;;;;17.90;58.30;;;;;;5032128;28;19927;-78
2021/03/28 09:32:36;;;;;;;;;;;17.90;58.30;;;;;;5038686;28;20337;-77
2021/03/28 09:35:01;;;;;;;;;;;17.90;58.20;;;;;;5047790;28;20255;-79
2021/03/28 09:37:35;;;;;;;;;;;17.90;58.20;;;;;;5032535;28;19940;-78
2021/03/28 09:40:04;;;;;;;;;;;17.90;58.20;;;;;;5018643;28;19913;-79
2021/03/28 09:42:40;;;;;;;;;;;17.90;58.20;;;;;;5037771;28;20334;-79
2021/03/28 09:45:38;;;;;;;;;;;17.90;58.20;;;;;;5044347;28;20290;-79
2021/03/28 09:48:06;;;;;;;;;;;17.90;58.20;;;;;;4980418;28;19913;-79
2021/03/28 09:50:38;;;;;;;;;;;17.90;58.20;;;;;;5005029;28;19996;-80
2021/03/28 09:53:06;;;;;;;;;;;17.90;58.20;;;;;;5009713;28;20012;-79
2021/03/28 09:55:42;;;;;;;;;;;17.90;58.30;;;;;;5006552;28;19920;-80
2021/03/28 09:58:40;;;;;;;;;;;17.80;58.30;;;;;;5015508;28;19913;-79
2021/03/28 10:01:11;;;;;;;;;;;17.90;58.30;;;;;;5009983;28;19914;-80
2021/03/28 10:03:47;;;;;;;;;;;17.90;58.40;;;;;;5019003;28;19921;-79
2021/03/28 10:06:14;;;;;;;;;;;17.80;58.40;;;;;;4998599;28;20299;-79
2021/03/28 10:08:42;;;;;;;;;;;17.80;58.40;;;;;;5010297;28;20350;-79
2021/03/28 10:11:26;;;;;;;;;;;17.80;58.40;;;;;;4996245;28;19922;-79
2021/03/28 10:13:52;;;;;;;;;;;17.80;58.40;;;;;;5037156;28;19924;-80
2021/03/28 10:16:40;;;;;;;;;;;17.80;58.30;;;;;;5046184;28;20000;-80
2021/03/28 10:19:23;;;;;;;;;;;17.90;58.20;;;;;;4994247;28;20346;-79
2021/03/28 10:21:57;;;;;;;;;;;17.90;58.20;;;;;;5034403;28;20351;-79
2021/03/28 10:24:41;;;;;;;;;;;17.90;58.10;;;;;;4996572;28;19920;-79
2021/03/28 10:27:07;;;;;;;;;;;18.00;58.20;;;;;;5013727;28;19918;-79
2021/03/28 10:29:41;;;;;;;;;;;17.90;58.20;;;;;;5008148;28;19929;-80
2021/03/28 10:32:14;;;;;;;;;;;17.90;58.20;;;;;;5001763;28;19971;-79
2021/03/28 10:34:58;;;;;;;;;;;17.90;58.20;;;;;;5006586;28;20306;-79
2021/03/28 10:37:30;;;;;;;;;;;17.90;58.30;;;;;;5041497;28;19914;-79
2021/03/28 10:39:56;;;;;;;;;;;17.90;58.30;;;;;;5029562;28;20344;-79
2021/03/28 10:42:27;;;;;;;;;;;17.90;58.30;;;;;;5038251;28;19921;-80
2021/03/28 10:45:11;;;;;;;;;;;17.90;58.20;;;;;;5051041;28;19917;-79
2021/03/28 10:47:52;;;;;;;;;;;17.90;58.20;;;;;;5060930;28;19913;-79
2021/03/28 10:50:36;;;;;;;;;;;17.90;58.20;;;;;;5035029;28;19958;-80
2021/03/28 10:53:25;;;;;;;;;;;17.90;58.20;;;;;;5039231;28;19921;-81
2021/03/28 10:56:09;;;;;;;;;;;17.90;58.30;;;;;;5042538;28;20446;-80
2021/03/28 10:58:38;;;;;;;;;;;17.90;58.30;;;;;;5039381;28;19928;-79
2021/03/28 11:01:28;;;;;;;;;;;17.90;58.30;;;;;;5064486;28;19995;-79
2021/03/28 11:04:12;;;;;;;;;;;17.80;58.30;;;;;;5036915;28;20347;-80
2021/03/28 11:06:45;;;;;;;;;;;17.90;58.30;;;;;;5041931;28;19951;-79
2021/03/28 11:09:29;;;;;;;;;;;17.80;58.30;;;;;;5062987;28;20043;-80
2021/03/28 11:12:07;;;;;;;;;;;17.90;58.30;;;;;;5044713;28;19921;-79
2021/03/28 11:14:51;;;;;;;;;;;17.90;58.30;;;;;;5067515;28;19917;-80
2021/03/28 11:17:31;;;;;;;;;;;17.90;58.30;;;;;;5053763;28;19913;-81
2021/03/28 11:20:00;;;;;;;;;;;17.90;58.20;;;;;;5051421;28;19913;-81
2021/03/28 11:22:44;;;;;;;;;;;17.80;58.20;;;;;;5039391;28;20039;-78
2021/03/28 11:25:23;;;;;;;;;;;17.80;58.20;;;;;;5057680;28;19952;-78
2021/03/28 11:28:08;;;;;;;;;;;17.90;58.20;;;;;;5032152;28;20389;-78
2021/03/28 11:30:41;;;;;;;;;;;17.90;58.20;;;;;;5052407;28;19913;-78
2021/03/28 11:33:15;;;;;;;;;;;17.90;58.20;;;;;;5032855;28;19924;-78
2021/03/28 11:35:46;;;;;;;;;;;17.90;58.20;;;;;;5036716;28;19975;-79
2021/03/28 11:38:23;;;;;;;;;;;17.90;58.20;;;;;;5038971;28;20011;-78
2021/03/28 11:40:53;;;;;;;;;;;17.90;58.20;;;;;;5041406;28;19921;-79
2021/03/28 11:43:26;;;;;;;;;;;17.90;58.20;;;;;;5022472;28;19956;-79
2021/03/28 11:46:04;;;;;;;;;;;17.90;58.20;;;;;;5056578;28;20000;-79
2021/03/28 11:48:48;;;;;;;;;;;17.90;58.20;;;;;;5031259;28;19920;-78
2021/03/28 11:51:27;;;;;;;;;;;17.90;58.20;;;;;;5032863;28;19917;-78
2021/03/28 11:53:55;;;;;;;;;;;17.90;58.10;;;;;;5047122;28;19921;-78
2021/03/28 11:56:39;;;;;;;;;;;17.90;58.10;;;;;;5045072;28;19966;-79
2021/03/28 11:59:06;;;;;;;;;;;18.00;58.10;;;;;;5034658;28;20379;-78
2021/03/28 12:01:50;;;;;;;;;;;18.00;58.10;;;;;;5044718;28;19921;-80
2021/03/28 12:04:24;;;;;;;;;;;17.90;58.10;;;;;;5052185;28;19964;-80
2021/03/28 12:06:53;;;;;;;;;;;17.90;58.10;;;;;;5034839;28;19913;-78
2021/03/28 12:09:25;;;;;;;;;;;17.90;58.10;;;;;;5035214;28;19913;-77
2021/03/28 12:11:52;;;;;;;;;;;17.90;58.10;;;;;;5045724;28;19921;-79
2021/03/28 12:14:19;;;;;;;;;;;17.90;58.00;;;;;;5035124;28;19939;-79
2021/03/28 12:17:04;;;;;;;;;;;18.00;58.00;;;;;;5019958;28;19913;-78
2021/03/28 12:19:34;;;;;;;;;;;18.00;58.00;;;;;;5058202;28;20363;-77
2021/03/28 12:22:01;;;;;;;;;;;18.00;58.00;;;;;;5043629;28;20027;-78
2021/03/28 12:24:40;;;;;;;;;;;18.00;58.10;;;;;;5032651;28;19940;-78
2021/03/28 12:27:27;;;;;;;;;;;18.00;58.10;;;;;;5035571;28;19912;-78
2021/03/28 12:29:58;;;;;;;;;;;18.00;58.00;;;;;;5033358;28;20011;-78
2021/03/28 12:32:47;;;;;;;;;;;18.00;58.00;;;;;;5032761;28;19923;-79
2021/03/28 12:35:19;;;;;;;;;;;18.00;58.00;;;;;;5034461;28;20011;-78
2021/03/28 12:37:46;;;;;;;;;;;18.00;58.00;;;;;;5031255;28;19922;-78
2021/03/28 12:40:30;;;;;;;;;;;18.00;58.00;;;;;;5032363;28;19913;-78
2021/03/28 12:42:56;;;;;;;;;;;18.00;58.00;;;;;;5044705;28;20325;-78
2021/03/28 12:45:25;;;;;;;;;;;18.00;57.90;;;;;;5036907;28;19916;-78
2021/03/28 12:47:55;;;;;;;;;;;18.00;58.00;;;;;;5049061;28;20331;-78
2021/03/28 12:50:31;;;;;;;;;;;18.00;57.90;;;;;;5033100;28;20008;-79
2021/03/28 12:53:17;;;;;;;;;;;18.00;57.90;;;;;;5033529;28;19921;-78
2021/03/28 12:55:50;;;;;;;;;;;18.00;57.90;;;;;;5039479;28;19913;-77
2021/03/28 12:58:22;;;;;;;;;;;18.00;57.90;;;;;;5027495;28;19975;-79
2021/03/28 13:01:02;;;;;;;;;;;18.00;57.90;;;;;;5050086;28;19917;-79
2021/03/28 13:03:27;;;;;;;;;;;18.00;57.80;;;;;;5023942;28;19912;-78
2021/03/28 13:05:59;;;;;;;;;;;18.00;57.90;;;;;;5020211;28;19927;-79
2021/03/28 13:08:25;;;;;;;;;;;18.00;57.90;;;;;;5037060;28;19913;-78
2021/03/28 13:10:56;;;;;;;;;;;18.00;57.90;;;;;;5028087;28;19962;-78
2021/03/28 13:13:24;;;;;;;;;;;18.00;57.90;;;;;;5061037;28;19917;-79
2021/03/28 13:15:51;;;;;;;;;;;18.00;57.90;;;;;;5015873;28;20187;-78
2021/03/28 13:18:22;;;;;;;;;;;18.00;57.90;;;;;;5023142;28;20000;-80
2021/03/28 13:20:55;;;;;;;;;;;18.00;57.90;;;;;;5018793;28;19928;-80
2021/03/28 13:23:23;;;;;;;;;;;18.00;57.90;;;;;;5028982;28;19967;-79
2021/03/28 13:26:08;;;;;;;;;;;18.00;57.90;;;;;;5036805;28;19913;-78
2021/03/28 13:28:34;;;;;;;;;;;18.00;57.90;;;;;;5053370;28;19966;-78
2021/03/28 13:31:35;;;;;;;;;;;18.10;57.90;;;;;;5055141;28;19923;-78
2021/03/28 13:34:23;;;;;;;;;;;18.00;57.90;;;;;;4975723;28;19965;-79
2021/03/28 13:37:18;;;;;;;;;;;18.00;57.80;;;;;;5015543;28;19976;-78
2021/03/28 13:40:03;;;;;;;;;;;18.00;57.80;;;;;;5023247;28;20370;-77
2021/03/28 13:42:31;;;;;;;;;;;18.00;57.80;;;;;;5049553;28;20382;-78
2021/03/28 13:44:58;;;;;;;;;;;18.00;57.80;;;;;;5011462;28;19920;-78
2021/03/28 13:47:32;;;;;;;;;;;18.10;57.80;;;;;;5017685;28;19913;-78
2021/03/28 13:50:15;;;;;;;;;;;18.00;57.80;;;;;;5013030;28;20625;-78
2021/03/28 13:52:42;;;;;;;;;;;18.10;57.90;;;;;;5009210;28;19944;-78
2021/03/28 13:55:15;;;;;;;;;;;18.10;57.80;;;;;;5003851;28;20334;-78
2021/03/28 13:57:41;;;;;;;;;;;18.00;57.80;;;;;;4996532;28;20376;-78
2021/03/28 14:00:27;;;;;;;;;;;18.00;57.80;;;;;;4998909;28;19920;-78
2021/03/28 14:02:58;;;;;;;;;;;18.10;57.80;;;;;;5038102;28;19918;-78
2021/03/28 14:05:28;;;;;;;;;;;18.10;57.80;;;;;;5016523;28;20000;-78
2021/03/28 14:07:59;;;;;;;;;;;18.10;57.80;;;;;;5007644;28;19918;-78
2021/03/28 14:10:26;;;;;;;;;;;18.10;57.80;;;;;;5012102;28;20397;-78
2021/03/28 14:13:20;;;;;;;;;;;18.10;57.80;;;;;;5001954;28;19941;-78
2021/03/28 14:15:47;;;;;;;;;;;18.10;57.80;;;;;;5013907;28;20024;-79
2021/03/28 14:18:23;;;;;;;;;;;18.10;57.80;;;;;;5014609;28;19928;-78
2021/03/28 14:20:51;;;;;;;;;;;18.10;57.80;;;;;;4998096;28;19920;-77
2021/03/28 14:23:20;;;;;;;;;;;18.10;57.70;;;;;;5009677;28;20363;-80
2021/03/28 14:25:54;;;;;;;;;;;18.10;57.70;;;;;;5012423;28;19913;-79
2021/03/28 14:28:25;;;;;;;;;;;18.10;57.70;;;;;;5015014;28;20466;-78
2021/03/28 14:31:04;;;;;;;;;;;18.10;57.80;;;;;;5031008;28;20265;-79
2021/03/28 14:33:39;;;;;;;;;;;18.10;57.70;;;;;;4996468;28;19918;-78
2021/03/28 14:36:11;;;;;;;;;;;18.10;57.70;;;;;;5010246;28;19914;-78
2021/03/28 14:38:36;;;;;;;;;;;18.10;57.80;;;;;;5047018;28;20283;-78
2021/03/28 14:41:13;;;;;;;;;;;18.10;57.80;;;;;;5041786;28;19920;-80
2021/03/28 14:44:01;;;;;;;;;;;18.10;57.70;;;;;;5044139;28;20385;-80
2021/03/28 14:46:35;;;;;;;;;;;18.10;57.80;;;;;;5039478;28;19913;-78
2021/03/28 14:49:11;;;;;;;;;;;18.10;57.80;;;;;;5030517;28;20397;-80
2021/03/28 14:51:53;;;;;;;;;;;18.10;57.80;;;;;;5019272;28;19949;-77
2021/03/28 14:54:33;;;;;;;;;;;18.10;57.80;;;;;;5042797;28;19999;-78
2021/03/28 14:57:04;;;;;;;;;;;18.10;57.80;;;;;;5043872;28;19940;-77
2021/03/28 14:59:35;;;;;;;;;;;18.20;57.80;;;;;;5044003;28;19913;-76
2021/03/28 15:02:08;;;;;;;;;;;18.10;57.80;;;;;;5062456;28;19921;-77
2021/03/28 15:04:36;;;;;;;;;;;18.10;57.80;;;;;;5032334;28;20016;-76
2021/03/28 15:07:07;;;;;;;;;;;18.10;57.80;;;;;;5054965;28;20363;-77
2021/03/28 15:09:40;;;;;;;;;;;18.10;57.80;;;;;;5050199;28;19917;-77